createdAt,value
2017-12-30T00:01:34.188Z,5.57
2017-12-30T00:07:05.232Z,5.70
2017-12-30T00:09:47.096Z,5.74
2017-12-30T00:12:19.760Z,5.70
2017-12-30T00:14:51.803Z,5.77
2017-12-30T00:22:41.632Z,5.81
2017-12-30T00:28:24.313Z,5.81
2017-12-30T00:30:59.413Z,5.85
2017-12-30T00:34:16.517Z,5.87
2017-12-30T00:36:45.448Z,5.85
2017-12-30T00:39:14.188Z,5.89
2017-12-30T00:41:58.952Z,5.95
2017-12-30T00:44:27.831Z,5.94
2017-12-30T00:46:56.049Z,5.92
2017-12-30T00:49:23.854Z,5.97
2017-12-30T00:51:51.983Z,5.97
2017-12-30T00:54:20.439Z,5.93
2017-12-30T00:56:50.566Z,5.92
2017-12-30T00:59:18.418Z,5.91
2017-12-30T01:01:49.310Z,5.92
2017-12-30T01:04:17.692Z,5.89
2017-12-30T01:06:45.982Z,5.96
2017-12-30T01:09:14.830Z,5.94
2017-12-30T01:11:43.775Z,5.95
2017-12-30T01:14:11.891Z,5.92
2017-12-30T01:16:39.807Z,5.88
2017-12-30T01:19:07.661Z,5.84
2017-12-30T01:21:35.844Z,5.87
2017-12-30T01:24:03.595Z,5.88
2017-12-30T01:26:31.372Z,5.90
2017-12-30T01:28:59.352Z,5.93
2017-12-30T01:31:27.092Z,5.91
2017-12-30T01:33:56.091Z,5.89
2017-12-30T01:36:25.075Z,5.91
2017-12-30T01:38:53.119Z,5.92
2017-12-30T01:41:21.206Z,5.92
2017-12-30T01:43:49.281Z,5.92
2017-12-30T01:46:17.978Z,5.91
2017-12-30T01:48:57.411Z,5.91
2017-12-30T01:51:25.116Z,5.92
2017-12-30T01:53:53.718Z,5.91
2017-12-30T01:56:21.583Z,5.89
2017-12-30T01:58:49.684Z,5.87
2017-12-30T02:01:17.325Z,5.86
2017-12-30T02:03:45.046Z,5.86
2017-12-30T02:06:13.881Z,5.87
2017-12-30T02:08:41.987Z,5.88
2017-12-30T02:11:09.772Z,5.85
2017-12-30T02:13:37.873Z,5.86
2017-12-30T02:16:05.656Z,5.88
2017-12-30T02:18:33.408Z,5.89
2017-12-30T02:21:02.628Z,5.92
2017-12-30T02:23:30.442Z,5.92
2017-12-30T02:25:58.473Z,5.90
2017-12-30T02:28:26.293Z,5.88
2017-12-30T02:30:54.106Z,5.87
2017-12-30T02:33:22.304Z,5.85
2017-12-30T02:35:50.099Z,5.85
2017-12-30T02:38:17.832Z,5.84
2017-12-30T02:40:45.786Z,5.85
2017-12-30T02:43:15.091Z,5.85
2017-12-30T02:45:42.899Z,5.80
2017-12-30T02:48:14.441Z,5.83
2017-12-30T02:50:42.490Z,5.82
2017-12-30T02:53:11.144Z,5.80
2017-12-30T02:55:39.581Z,5.76
2017-12-30T02:58:07.329Z,5.73
2017-12-30T03:00:35.173Z,5.74
2017-12-30T03:03:05.265Z,5.75
2017-12-30T03:05:34.232Z,5.75
2017-12-30T03:08:03.905Z,5.74
2017-12-30T03:10:34.565Z,5.69
2017-12-30T03:13:02.376Z,5.71
2017-12-30T03:15:30.157Z,5.71
2017-12-30T03:17:57.965Z,5.69
2017-12-30T03:20:25.757Z,5.69
2017-12-30T03:22:59.535Z,5.70
2017-12-30T03:25:29.936Z,5.73
2017-12-30T03:27:59.977Z,5.70
2017-12-30T03:30:28.980Z,5.69
2017-12-30T03:32:57.494Z,5.66
2017-12-30T03:35:26.307Z,5.69
2017-12-30T03:37:54.230Z,5.68
2017-12-30T03:40:24.238Z,5.65
2017-12-30T03:43:09.578Z,5.64
2017-12-30T03:45:42.748Z,5.64
2017-12-30T03:48:16.192Z,5.64
2017-12-30T03:50:45.457Z,5.62
2017-12-30T03:53:14.357Z,5.58
2017-12-30T03:55:48.367Z,5.60
2017-12-30T03:58:20.894Z,5.61
2017-12-30T04:01:11.576Z,5.62
2017-12-30T04:03:42.002Z,5.61
2017-12-30T04:06:11.367Z,5.61
2017-12-30T04:08:41.510Z,5.60
2017-12-30T04:11:11.656Z,5.61
2017-12-30T04:13:43.982Z,5.64
2017-12-30T04:16:16.178Z,5.65
2017-12-30T04:18:49.363Z,5.67
2017-12-30T04:21:22.973Z,5.64
2017-12-30T04:23:53.537Z,5.63
2017-12-30T04:26:28.555Z,5.59
2017-12-30T04:29:03.954Z,5.56
2017-12-30T04:31:33.343Z,5.55
2017-12-30T04:34:02.995Z,5.51
2017-12-30T04:36:31.877Z,5.45
2017-12-30T04:38:59.728Z,5.43
2017-12-30T04:41:27.668Z,5.40
2017-12-30T04:43:57.679Z,5.38
2017-12-30T04:46:27.148Z,5.35
2017-12-30T04:48:56.857Z,5.35
2017-12-30T04:51:24.638Z,5.30
2017-12-30T04:53:52.427Z,5.26
2017-12-30T04:56:20.184Z,5.24
2017-12-30T04:58:51.767Z,5.20
2017-12-30T05:01:25.229Z,5.19
2017-12-30T05:03:59.349Z,5.16
2017-12-30T05:06:31.036Z,5.13
2017-12-30T05:09:00.557Z,5.12
2017-12-30T07:43:55.480Z,4.69
2017-12-30T07:46:24.995Z,4.68
2017-12-30T07:49:05.672Z,4.67
2017-12-30T07:51:38.223Z,4.66
2017-12-30T07:54:21.404Z,4.66
2017-12-30T07:56:54.106Z,4.68
2017-12-30T07:59:28.607Z,4.64
2017-12-30T08:02:08.812Z,4.65
2017-12-30T08:04:39.772Z,4.60
2017-12-30T08:07:11.930Z,4.62
2017-12-30T08:09:47.825Z,4.62
2017-12-30T08:12:16.610Z,4.61
2017-12-30T08:14:48.975Z,4.61
2017-12-30T08:17:17.660Z,4.58
2017-12-30T08:19:45.851Z,4.57
2017-12-30T08:22:14.698Z,4.60
2017-12-30T08:27:24.595Z,4.65
2017-12-30T08:29:53.470Z,4.63
2017-12-30T08:32:22.438Z,4.62
2017-12-30T08:34:50.174Z,4.61
2017-12-30T08:37:17.980Z,4.60
2017-12-30T08:39:45.741Z,4.61
2017-12-30T08:42:13.483Z,4.63
2017-12-30T08:44:41.134Z,4.69
2017-12-30T08:47:08.933Z,4.68
2017-12-30T08:49:36.712Z,4.64
2017-12-30T08:52:07.435Z,4.68
2017-12-30T08:54:35.130Z,4.67
2017-12-30T08:57:03.061Z,4.70
2017-12-30T08:59:30.963Z,4.68
2017-12-30T09:02:00.370Z,4.66
2017-12-30T09:04:28.124Z,4.70
2017-12-30T09:06:56.283Z,4.72
2017-12-30T09:09:24.777Z,4.69
2017-12-30T09:11:55.063Z,4.68
2017-12-30T09:14:22.934Z,4.68
2017-12-30T09:16:53.008Z,4.72
2017-12-30T14:36:16.011Z,10.63
2017-12-30T14:38:51.850Z,10.66
2017-12-30T14:41:19.661Z,10.67
2017-12-30T14:43:48.209Z,10.72
2017-12-30T14:46:16.347Z,10.78
2017-12-30T14:48:52.746Z,10.79
2017-12-30T14:51:24.368Z,10.84
2017-12-30T14:53:59.184Z,10.78
2017-12-30T14:56:28.327Z,10.82
2017-12-30T14:58:56.070Z,10.87
2017-12-30T15:01:23.816Z,10.79
2017-12-30T15:03:52.438Z,10.77
2017-12-30T15:06:20.818Z,10.76
2017-12-30T15:08:49.058Z,10.72
2017-12-30T15:11:19.000Z,10.68
2017-12-30T15:13:46.700Z,10.74
2017-12-30T15:16:14.513Z,10.70
2017-12-30T15:18:42.668Z,10.70
2017-12-30T15:21:10.829Z,10.70
2017-12-30T15:23:38.674Z,10.70
2017-12-30T15:26:06.342Z,10.72
2017-12-30T15:28:34.008Z,10.67
2017-12-30T15:31:02.078Z,10.63
2017-12-30T15:33:29.770Z,10.71
2017-12-30T15:35:57.818Z,10.75
2017-12-30T15:38:26.040Z,10.78
2017-12-30T15:40:55.695Z,10.76
2017-12-30T15:43:23.520Z,10.64
2017-12-30T15:45:51.177Z,10.57
2017-12-30T15:48:18.858Z,10.52
2017-12-30T15:50:46.486Z,10.45
2017-12-30T15:53:14.212Z,10.41
2017-12-30T15:55:41.880Z,10.40
2017-12-30T15:58:09.576Z,10.40
2017-12-30T16:00:37.472Z,10.38
2017-12-30T16:03:15.150Z,10.33
2017-12-30T16:05:44.282Z,10.24
2017-12-30T16:08:12.707Z,10.14
2017-12-30T16:10:51.674Z,10.04
2017-12-30T16:13:23.490Z,9.99
2017-12-30T16:15:55.013Z,9.93
2017-12-30T16:18:23.210Z,9.95
2017-12-30T16:20:57.629Z,9.96
2017-12-30T16:29:39.538Z,10.02
2017-12-30T16:40:13.092Z,10.05
2017-12-30T16:42:56.406Z,10.05
2017-12-30T16:45:56.122Z,10.04
2017-12-30T19:44:06.249Z,10.49
2017-12-30T19:46:38.153Z,10.45
2017-12-30T19:49:07.171Z,10.40
2017-12-30T19:51:41.649Z,10.40
2017-12-30T19:54:14.605Z,10.37
2017-12-30T19:56:46.000Z,10.34
2017-12-30T19:59:15.782Z,10.33
2017-12-30T20:01:47.881Z,10.35
2017-12-30T20:04:19.547Z,10.30
2017-12-30T20:06:48.585Z,10.25
2017-12-30T20:11:51.657Z,10.20
2017-12-30T20:14:19.979Z,10.19
2017-12-30T20:16:48.956Z,10.18
2017-12-30T20:19:16.882Z,10.17
2017-12-30T20:21:45.871Z,10.12
2017-12-30T20:24:14.825Z,10.07
2017-12-30T21:07:12.125Z,9.61
2017-12-30T21:09:44.473Z,9.53
2017-12-30T21:18:05.030Z,9.61
2017-12-30T21:23:27.226Z,9.56
2017-12-30T21:25:58.417Z,9.55
2017-12-30T21:28:27.772Z,9.56
2017-12-30T21:34:08.802Z,9.55
2017-12-30T21:42:24.631Z,9.51
2017-12-30T22:06:02.922Z,9.18
2017-12-30T22:11:12.602Z,9.11
2017-12-30T22:13:45.089Z,9.07
2017-12-30T22:16:17.904Z,9.08
2017-12-30T22:21:20.969Z,9.04
2017-12-30T22:26:26.540Z,9.01
2017-12-30T22:29:07.061Z,8.97
2017-12-30T22:31:39.536Z,8.93
2017-12-30T22:34:09.909Z,8.92
2017-12-30T22:36:47.896Z,8.91
2017-12-30T22:39:19.239Z,8.90
2017-12-30T22:41:50.506Z,8.85
2017-12-30T22:44:20.035Z,8.81
2017-12-30T22:46:55.680Z,8.81
2017-12-30T22:49:30.379Z,8.80
